createdAt,value
2023-04-14T00:00:33.707Z,7.07
2023-04-14T00:03:03.020Z,6.94
2023-04-14T00:05:31.819Z,6.91
2023-04-14T00:08:00.227Z,6.84
2023-04-14T00:10:29.156Z,6.87
2023-04-14T00:12:57.476Z,6.91
2023-04-14T00:15:27.332Z,6.94
2023-04-14T00:17:55.758Z,6.98
2023-04-14T00:20:24.234Z,6.99
2023-04-14T00:22:53.010Z,7.09
2023-04-14T00:25:21.310Z,7.07
2023-04-14T00:27:49.718Z,7.10
2023-04-14T00:30:18.450Z,7.08
2023-04-14T00:32:48.205Z,6.82
2023-04-14T00:35:16.677Z,6.69
2023-04-14T00:37:46.388Z,6.62
2023-04-14T00:40:14.962Z,6.63
2023-04-14T00:42:44.581Z,6.57
2023-04-14T00:45:13.745Z,6.51
2023-04-14T00:47:47.062Z,6.55
2023-04-14T00:50:19.398Z,6.61
2023-04-14T00:52:50.200Z,6.67
2023-04-14T00:55:20.685Z,6.77
2023-04-14T00:57:49.393Z,6.81
2023-04-14T01:00:18.286Z,6.90
2023-04-14T01:02:47.072Z,6.95
2023-04-14T01:05:17.323Z,6.90
2023-04-14T01:07:46.293Z,6.86
2023-04-14T01:10:14.607Z,6.89
2023-04-14T01:13:07.257Z,6.90
2023-04-14T01:15:41.521Z,7.00
2023-04-14T01:18:19.837Z,6.94
2023-04-14T01:20:53.223Z,6.85
2023-04-14T01:23:25.286Z,6.75
2023-04-14T01:26:17.352Z,6.62
2023-04-14T01:29:31.815Z,6.54
2023-04-14T01:32:06.978Z,6.51
2023-04-14T01:34:39.123Z,6.60
2023-04-14T01:37:10.537Z,6.56
2023-04-14T01:39:41.757Z,6.64
2023-04-14T01:42:14.454Z,6.67
2023-04-14T01:44:44.281Z,6.74
2023-04-14T01:47:17.671Z,6.83
2023-04-14T01:49:48.225Z,6.87
2023-04-14T01:52:18.528Z,6.94
2023-04-14T01:54:51.374Z,6.93
2023-04-14T01:57:23.023Z,6.87
2023-04-14T01:59:56.512Z,6.87
2023-04-14T02:02:27.749Z,6.90
2023-04-14T02:04:57.594Z,6.98
2023-04-14T02:07:27.588Z,6.91
2023-04-14T02:09:58.007Z,6.77
2023-04-14T02:12:29.328Z,6.53
2023-04-14T02:15:01.223Z,6.36
2023-04-14T02:17:32.318Z,6.22
2023-04-14T02:20:02.294Z,6.24
2023-04-14T02:22:30.621Z,6.19
2023-04-14T02:24:58.972Z,6.19
2023-04-14T02:27:32.823Z,6.12
2023-04-14T02:30:05.295Z,6.09
2023-04-14T02:32:36.970Z,6.02
2023-04-14T02:35:12.149Z,6.03
2023-04-14T02:37:43.834Z,6.03
2023-04-14T02:40:17.363Z,6.00
2023-04-14T02:42:49.427Z,5.95
2023-04-14T02:45:24.759Z,5.90
2023-04-14T02:47:58.241Z,5.84
2023-04-14T02:50:29.665Z,5.91
2023-04-14T02:53:00.079Z,5.94
2023-04-14T02:55:29.988Z,5.92
2023-04-14T02:57:59.824Z,5.96
2023-04-14T03:00:29.601Z,6.02
2023-04-14T03:03:01.283Z,6.11
2023-04-14T03:05:31.407Z,6.02
2023-04-14T03:08:02.269Z,6.06
2023-04-14T03:10:31.818Z,6.07
2023-04-14T03:13:03.014Z,6.07
2023-04-14T03:15:33.741Z,6.06
2023-04-14T03:18:04.475Z,5.99
2023-04-14T03:20:34.377Z,5.95
2023-04-14T03:23:05.638Z,6.01
2023-04-14T03:25:38.284Z,6.02
2023-04-14T03:28:13.051Z,5.99
2023-04-14T03:30:45.062Z,5.94
2023-04-14T03:33:20.062Z,5.97
2023-04-14T03:35:50.703Z,6.01
2023-04-14T03:38:21.641Z,6.16
2023-04-14T03:40:51.688Z,6.20
2023-04-14T03:43:23.935Z,6.32
2023-04-14T03:45:52.498Z,6.55
2023-04-14T03:48:26.475Z,6.93
2023-04-14T03:50:57.799Z,7.28
2023-04-14T03:53:27.810Z,7.83
2023-04-14T03:55:59.855Z,8.47
2023-04-14T03:58:30.079Z,9.05
2023-04-14T04:00:59.044Z,9.92
2023-04-14T04:03:30.800Z,10.50
2023-04-14T04:06:00.174Z,10.70
2023-04-14T04:08:29.854Z,10.61
2023-04-14T04:10:59.708Z,11.36
2023-04-14T04:13:29.107Z,12.02
2023-04-14T04:15:58.431Z,12.67
2023-04-14T04:18:32.570Z,12.81
2023-04-14T04:21:02.437Z,13.29
2023-04-14T04:23:34.759Z,13.59
2023-04-14T04:26:03.846Z,14.56
2023-04-14T04:28:32.645Z,15.55
2023-04-14T04:31:02.465Z,16.36
2023-04-14T04:33:32.999Z,16.34
2023-04-14T04:36:02.693Z,16.36
2023-04-14T04:38:31.640Z,16.52
2023-04-14T04:41:00.198Z,15.87
2023-04-14T04:43:28.612Z,16.24
2023-04-14T04:46:26.165Z,17.43
2023-04-14T04:48:56.941Z,18.07
2023-04-14T04:51:25.726Z,17.70
2023-04-14T04:53:54.098Z,17.38
2023-04-14T04:56:22.846Z,16.42
2023-04-14T04:58:54.870Z,15.88
2023-04-14T05:01:23.208Z,14.98
2023-04-14T05:03:51.802Z,14.90
2023-04-14T05:06:21.922Z,14.46
2023-04-14T05:08:52.804Z,14.51
2023-04-14T05:11:21.302Z,14.61
2023-04-14T05:13:49.775Z,14.63
2023-04-14T05:16:18.637Z,14.80
2023-04-14T05:18:47.045Z,14.30
2023-04-14T05:21:16.117Z,13.64
2023-04-14T05:23:48.011Z,13.49
2023-04-14T05:28:48.300Z,13.34
2023-04-14T05:31:16.730Z,13.40
2023-04-14T05:33:45.346Z,13.14
2023-04-14T05:36:13.783Z,13.31
2023-04-14T05:38:42.235Z,13.45
2023-04-14T05:41:12.120Z,13.98
2023-04-14T05:43:40.516Z,14.34
2023-04-14T05:46:09.086Z,14.64
2023-04-14T05:48:38.341Z,14.81
2023-04-14T05:51:06.749Z,15.26
2023-04-14T05:53:35.345Z,15.09
2023-04-14T05:56:03.859Z,15.31
2023-04-14T05:58:33.819Z,15.19
2023-04-14T06:01:04.067Z,15.71
2023-04-14T06:03:33.099Z,16.20
2023-04-14T06:06:01.563Z,14.98
2023-04-14T06:08:30.563Z,14.99
2023-04-14T06:10:59.052Z,16.10
2023-04-14T06:13:28.995Z,16.59
2023-04-14T06:16:00.969Z,16.29
2023-04-14T06:18:30.306Z,16.25
2023-04-14T06:20:59.278Z,16.56
2023-04-14T06:23:28.148Z,16.44
2023-04-14T06:25:57.987Z,15.88
2023-04-14T06:28:26.523Z,15.92
2023-04-14T06:30:55.338Z,15.70
2023-04-14T06:33:25.219Z,15.73
2023-04-14T06:35:53.695Z,16.13
2023-04-14T06:38:22.393Z,16.32
2023-04-14T06:40:53.213Z,15.95
2023-04-14T06:43:21.727Z,15.66
2023-04-14T06:45:51.042Z,15.34
2023-04-14T06:48:19.617Z,15.29
2023-04-14T06:50:56.065Z,15.79
2023-04-14T06:53:24.900Z,16.09
2023-04-14T06:55:59.630Z,16.40
2023-04-14T06:58:28.808Z,16.30
2023-04-14T07:00:58.213Z,16.93
2023-04-14T07:03:27.800Z,17.29
2023-04-14T07:06:04.045Z,16.46
2023-04-14T07:08:33.151Z,16.61
2023-04-14T07:11:02.328Z,16.33
2023-04-14T07:13:30.753Z,16.99
2023-04-14T07:15:59.307Z,17.28
2023-04-14T07:18:27.905Z,17.60
2023-04-14T07:20:58.745Z,17.53
2023-04-14T07:23:27.414Z,17.79
2023-04-14T07:25:57.242Z,17.40
2023-04-14T07:28:27.121Z,16.97
2023-04-14T07:30:55.979Z,16.23
2023-04-14T07:33:27.206Z,16.56
2023-04-14T07:36:02.288Z,16.36
2023-04-14T07:38:33.746Z,16.82
2023-04-14T07:41:04.866Z,16.63
2023-04-14T07:43:35.839Z,16.66
2023-04-14T07:46:06.002Z,16.74
2023-04-14T07:48:35.457Z,16.55
2023-04-14T07:51:04.613Z,16.55
2023-04-14T07:53:35.227Z,17.24
2023-04-14T07:56:03.904Z,17.48
2023-04-14T07:58:32.379Z,17.83
2023-04-14T08:01:00.857Z,17.50
2023-04-14T08:03:29.364Z,17.67
2023-04-14T08:05:58.616Z,17.41
2023-04-14T08:08:27.568Z,17.60
2023-04-14T08:10:57.332Z,17.83
2023-04-14T08:13:25.610Z,18.03
2023-04-14T08:15:53.986Z,18.10
2023-04-14T08:18:22.511Z,18.29
2023-04-14T08:20:50.981Z,17.77
2023-04-14T08:23:19.767Z,17.36
2023-04-14T08:25:48.305Z,17.41
2023-04-14T08:28:18.486Z,17.41
2023-04-14T08:30:47.863Z,17.60
2023-04-14T08:33:16.551Z,17.52
2023-04-14T08:35:44.968Z,17.78
2023-04-14T08:38:13.316Z,17.98
2023-04-14T08:40:42.904Z,18.09
2023-04-14T08:43:14.801Z,18.30
2023-04-14T08:45:45.634Z,18.01
2023-04-14T08:48:18.293Z,17.76
2023-04-14T08:51:06.614Z,17.93
2023-04-14T08:53:37.434Z,17.87
2023-04-14T08:56:09.618Z,17.02
2023-04-14T08:58:38.049Z,17.39
2023-04-14T09:01:08.982Z,16.63
2023-04-14T09:03:39.417Z,17.06
2023-04-14T09:06:07.871Z,17.03
2023-04-14T09:08:37.706Z,16.31
2023-04-14T09:11:06.494Z,16.21
2023-04-14T09:13:36.227Z,16.41
2023-04-14T09:16:04.904Z,16.53
2023-04-14T09:18:35.435Z,16.68
2023-04-14T09:21:49.686Z,16.80
2023-04-14T09:23:53.915Z,16.28
2023-04-14T09:26:22.649Z,16.71
2023-04-14T09:28:52.577Z,16.77
2023-04-14T09:31:22.016Z,16.96
2023-04-14T09:33:51.995Z,17.06
2023-04-14T09:36:21.354Z,16.99
2023-04-14T09:38:50.856Z,17.16
2023-04-14T09:41:21.883Z,17.56
2023-04-14T09:43:50.730Z,17.76
2023-04-14T09:46:19.231Z,17.97
2023-04-14T09:48:57.115Z,17.89
2023-04-14T09:51:29.730Z,17.87
2023-04-14T09:54:05.353Z,16.67
2023-04-14T09:56:34.182Z,16.77
2023-04-14T09:59:04.100Z,16.32
2023-04-14T10:01:35.034Z,16.45
2023-04-14T10:04:05.141Z,16.05
2023-04-14T10:06:33.607Z,16.40
2023-04-14T10:09:02.995Z,16.77
2023-04-14T10:11:33.139Z,16.67
2023-04-14T10:14:04.036Z,16.67
2023-04-14T10:16:33.425Z,16.60
2023-04-14T10:19:03.046Z,16.07
2023-04-14T10:21:34.372Z,15.78
2023-04-14T10:24:03.117Z,16.30
2023-04-14T10:26:31.536Z,16.47
2023-04-14T10:29:02.689Z,16.67
2023-04-14T10:31:36.060Z,16.97
2023-04-14T10:34:13.473Z,16.91
2023-04-14T10:36:43.872Z,16.92
2023-04-14T10:39:13.439Z,16.97
2023-04-14T10:41:49.779Z,16.57
2023-04-14T10:44:25.909Z,17.17
2023-04-14T10:46:56.577Z,17.24
2023-04-14T10:49:30.789Z,17.25
2023-04-14T10:52:02.601Z,16.87
2023-04-14T10:54:50.190Z,16.78
2023-04-14T10:57:20.274Z,16.15
2023-04-14T10:59:50.009Z,16.26
2023-04-14T11:02:26.983Z,16.54
2023-04-14T11:05:06.605Z,16.92
2023-04-14T11:07:45.799Z,16.72
2023-04-14T11:10:35.110Z,16.92
2023-04-14T11:13:05.310Z,16.81
2023-04-14T11:15:47.428Z,16.88
2023-04-14T11:18:16.995Z,17.09
2023-04-14T11:20:45.882Z,16.59
2023-04-14T11:23:16.669Z,16.38
2023-04-14T11:25:45.722Z,16.40
2023-04-14T11:28:14.031Z,16.63
2023-04-14T11:30:43.356Z,16.78
2023-04-14T11:33:12.862Z,17.13
2023-04-14T11:35:44.114Z,17.32
2023-04-14T11:38:12.908Z,17.15
2023-04-14T11:40:42.689Z,16.95
2023-04-14T11:43:11.204Z,16.90
2023-04-14T11:45:44.107Z,16.84
2023-04-14T11:48:14.354Z,16.97
2023-04-14T11:50:44.235Z,17.03
2023-04-14T11:53:13.905Z,17.16
2023-04-14T11:55:46.216Z,17.48
2023-04-14T11:58:15.415Z,17.48
2023-04-14T12:00:44.813Z,17.25
2023-04-14T12:03:13.344Z,17.22
2023-04-14T12:05:42.061Z,17.29
2023-04-14T12:08:12.768Z,17.24
2023-04-14T12:10:42.402Z,17.28
2023-04-14T12:13:13.029Z,17.48
2023-04-14T12:15:43.717Z,17.50
2023-04-14T12:18:14.732Z,17.47
2023-04-14T12:20:44.413Z,17.44
2023-04-14T12:23:13.103Z,17.35
2023-04-14T12:25:41.753Z,16.60
2023-04-14T12:28:12.716Z,16.26
2023-04-14T12:30:52.776Z,16.57
2023-04-14T12:33:24.639Z,16.28
2023-04-14T12:35:53.746Z,15.93
2023-04-14T12:38:28.148Z,16.17
2023-04-14T12:40:56.798Z,16.30
2023-04-14T12:43:31.504Z,16.18
2023-04-14T12:46:00.337Z,16.47
2023-04-14T12:48:42.581Z,16.24
2023-04-14T12:51:13.135Z,15.74
2023-04-14T12:53:42.733Z,16.01
2023-04-14T12:56:12.483Z,16.27
2023-04-14T12:58:43.828Z,16.08
2023-04-14T13:01:13.179Z,16.38
2023-04-14T13:03:44.843Z,16.42
2023-04-14T13:06:16.386Z,15.97
2023-04-14T13:08:46.264Z,15.88
2023-04-14T13:11:14.976Z,16.19
2023-04-14T13:13:45.865Z,16.27
2023-04-14T13:16:16.992Z,16.50
2023-04-14T13:18:47.640Z,16.70
2023-04-14T13:21:16.504Z,16.45
2023-04-14T13:23:44.950Z,16.52
2023-04-14T13:26:13.628Z,16.46
2023-04-14T13:28:42.009Z,16.45
2023-04-14T13:31:13.421Z,16.52
2023-04-14T13:33:41.784Z,16.51
2023-04-14T13:36:10.703Z,16.60
2023-04-14T13:38:38.973Z,16.57
2023-04-14T13:41:07.384Z,16.39
2023-04-14T13:43:36.328Z,16.37
2023-04-14T13:46:04.793Z,16.40
2023-04-14T13:48:34.648Z,16.56
2023-04-14T13:51:03.099Z,16.77
2023-04-14T13:53:31.420Z,16.84
2023-04-14T13:55:59.703Z,16.62
2023-04-14T13:58:28.404Z,16.62
2023-04-14T14:00:56.938Z,16.68
2023-04-14T14:03:26.000Z,16.67
2023-04-14T14:05:56.626Z,16.87
2023-04-14T14:08:24.909Z,16.93
2023-04-14T14:10:54.505Z,17.00
2023-04-14T14:13:22.802Z,16.96
2023-04-14T14:15:51.190Z,16.72
2023-04-14T14:18:19.544Z,16.66
2023-04-14T14:20:48.428Z,16.65
2023-04-14T14:23:18.527Z,16.74
2023-04-14T14:25:47.541Z,16.73
2023-04-14T14:28:15.936Z,16.66
2023-04-14T14:30:44.310Z,16.72
2023-04-14T14:33:12.663Z,16.81
2023-04-14T14:35:41.031Z,16.78
2023-04-14T14:38:09.397Z,16.83
2023-04-14T14:40:39.352Z,16.49
2023-04-14T14:43:07.745Z,16.55
2023-04-14T14:45:36.082Z,16.58
2023-04-14T14:48:05.354Z,16.54
2023-04-14T14:50:33.767Z,16.46
2023-04-14T14:53:02.056Z,16.44
2023-04-14T14:55:30.368Z,16.21
2023-04-14T14:58:00.457Z,16.10
2023-04-14T15:00:28.751Z,16.04
2023-04-14T15:02:57.280Z,16.16
2023-04-14T15:05:25.776Z,16.09
2023-04-14T15:07:54.100Z,16.22
2023-04-14T15:10:22.402Z,16.26
2023-04-14T15:12:50.852Z,16.25
2023-04-14T15:15:21.036Z,16.28
2023-04-14T15:17:49.487Z,16.26
2023-04-14T15:20:18.056Z,16.25
2023-04-14T15:22:46.384Z,16.18
2023-04-14T15:25:14.819Z,16.18
2023-04-14T15:27:43.123Z,16.13
2023-04-14T15:30:12.191Z,15.98
2023-04-14T15:32:41.952Z,15.76
2023-04-14T15:35:11.396Z,15.56
2023-04-14T15:37:39.696Z,15.54
2023-04-14T15:40:11.262Z,15.47
2023-04-14T15:42:40.713Z,15.29
2023-04-14T15:45:10.026Z,15.19
2023-04-14T15:47:38.399Z,15.21
2023-04-14T15:50:10.698Z,15.20
2023-04-14T15:52:41.326Z,15.15
2023-04-14T15:55:11.192Z,15.03
2023-04-14T15:57:39.519Z,14.96
2023-04-14T16:00:09.258Z,14.93
2023-04-14T16:02:38.381Z,14.87
2023-04-14T16:05:09.269Z,14.81
2023-04-14T16:07:37.624Z,14.76
2023-04-14T16:10:07.164Z,14.71
2023-04-14T16:12:36.746Z,14.69
2023-04-14T16:15:08.849Z,14.56
2023-04-14T16:17:37.207Z,14.50
2023-04-14T16:20:07.708Z,14.40
2023-04-14T16:22:36.082Z,14.61
2023-04-14T16:25:05.978Z,14.52
2023-04-14T16:27:34.479Z,14.50
2023-04-14T16:30:03.404Z,14.46
2023-04-14T16:32:31.792Z,14.54
2023-04-14T16:35:00.286Z,14.68
2023-04-14T16:37:32.071Z,14.82
2023-04-14T16:40:00.733Z,15.16
2023-04-14T16:42:29.222Z,15.49
2023-04-14T16:44:58.338Z,15.75
2023-04-14T16:47:27.954Z,15.80
2023-04-14T16:49:56.374Z,15.72
2023-04-14T16:52:26.373Z,15.63
2023-04-14T16:54:56.162Z,15.63
2023-04-14T16:57:24.559Z,15.65
2023-04-14T16:59:52.897Z,15.66
2023-04-14T17:02:21.429Z,15.83
2023-04-14T17:04:50.089Z,15.95
2023-04-14T17:07:18.535Z,16.04
2023-04-14T17:09:47.261Z,16.04
2023-04-14T17:12:17.735Z,15.97
2023-04-14T17:14:46.376Z,15.94
2023-04-14T17:17:14.717Z,15.94
2023-04-14T17:19:43.073Z,15.93
2023-04-14T17:22:12.255Z,15.84
2023-04-14T17:24:41.416Z,15.77
2023-04-14T17:27:09.831Z,15.72
2023-04-14T17:29:41.147Z,15.77
2023-04-14T17:32:10.809Z,15.91
2023-04-14T17:34:39.461Z,15.87
2023-04-14T17:37:07.832Z,15.87
2023-04-14T17:39:36.164Z,15.92
2023-04-14T17:42:04.691Z,15.98
2023-04-14T17:44:34.371Z,16.12
2023-04-14T17:47:12.919Z,16.07
2023-04-14T17:49:41.859Z,16.12
2023-04-14T17:52:11.208Z,16.23
2023-04-14T17:54:39.557Z,16.37
2023-04-14T17:57:10.224Z,16.33
2023-04-14T17:59:38.912Z,16.33
2023-04-14T18:02:09.862Z,16.26
2023-04-14T18:04:38.410Z,16.28
2023-04-14T18:07:07.735Z,16.25
2023-04-14T18:09:36.224Z,16.24
2023-04-14T18:12:05.221Z,16.18
2023-04-14T18:14:34.906Z,16.12
2023-04-14T18:17:03.574Z,16.08
2023-04-14T18:19:33.564Z,16.01
2023-04-14T18:22:03.304Z,16.03
2023-04-14T18:28:02.753Z,16.18
2023-04-14T18:29:53.062Z,16.14
2023-04-14T18:32:22.461Z,16.12
2023-04-14T18:34:52.723Z,16.06
2023-04-14T18:37:21.200Z,16.07
2023-04-14T18:39:49.829Z,15.91
2023-04-14T18:42:18.300Z,15.85
2023-04-14T18:44:46.822Z,15.80
2023-04-14T18:47:15.940Z,15.84
2023-04-14T18:49:44.302Z,15.82
2023-04-14T18:52:14.256Z,15.73
2023-04-14T18:54:42.911Z,15.73
2023-04-14T18:57:11.205Z,15.71
2023-04-14T18:59:39.866Z,15.67
2023-04-14T19:02:10.547Z,15.70
2023-04-14T19:04:39.366Z,15.66
2023-04-14T19:07:07.945Z,15.63
2023-04-14T19:09:37.757Z,15.65
2023-04-14T19:12:09.318Z,15.69
2023-04-14T19:14:44.969Z,15.66
2023-04-14T19:17:13.387Z,15.57
2023-04-14T19:19:41.927Z,15.44
2023-04-14T19:22:10.378Z,15.42
2023-04-14T19:24:40.518Z,15.38
2023-04-14T19:27:09.000Z,15.36
2023-04-14T19:29:38.192Z,15.36
2023-04-14T19:32:06.703Z,15.26
2023-04-14T19:34:35.545Z,15.18
2023-04-14T19:37:04.167Z,15.08
2023-04-14T19:39:32.751Z,14.98
2023-04-14T19:42:03.404Z,14.90
2023-04-14T19:44:32.363Z,14.85
2023-04-14T19:47:00.752Z,14.79
2023-04-14T19:49:29.483Z,14.67
2023-04-14T19:51:57.944Z,14.58
2023-04-14T19:54:26.516Z,14.49
2023-04-14T19:56:55.141Z,14.48
2023-04-14T19:59:24.963Z,14.43
2023-04-14T20:01:53.898Z,14.32
2023-04-14T20:04:22.394Z,14.34
2023-04-14T20:06:50.675Z,14.27
2023-04-14T20:09:18.975Z,14.26
2023-04-14T20:11:47.554Z,14.30
2023-04-14T20:14:16.311Z,14.34
2023-04-14T20:16:46.182Z,14.29
2023-04-14T20:19:14.847Z,14.32
2023-04-14T20:21:43.888Z,14.32
2023-04-14T20:24:12.335Z,14.31
2023-04-14T20:26:42.750Z,14.31
2023-04-14T20:29:11.801Z,14.28
2023-04-14T20:31:41.720Z,14.26
2023-04-14T20:34:12.263Z,14.21
2023-04-14T20:36:40.533Z,14.14
2023-04-14T20:39:08.873Z,14.09
2023-04-14T20:41:37.645Z,14.00
2023-04-14T20:44:06.381Z,14.01
2023-04-14T20:46:35.221Z,13.97
2023-04-14T20:49:03.846Z,14.03
2023-04-14T20:51:33.977Z,14.10
2023-04-14T20:54:02.784Z,14.00
2023-04-14T20:56:32.028Z,14.02
2023-04-14T20:59:01.092Z,13.90
2023-04-14T21:01:29.751Z,13.82
2023-04-14T21:03:58.808Z,13.77
2023-04-14T21:06:27.309Z,13.72
2023-04-14T21:08:57.077Z,13.62
2023-04-14T21:11:25.454Z,13.70
2023-04-14T21:15:28.400Z,13.70
2023-04-14T21:16:42.226Z,13.65
2023-04-14T21:19:10.679Z,13.65
2023-04-14T21:21:39.204Z,13.63
2023-04-14T21:24:09.642Z,13.55
2023-04-14T21:26:38.023Z,13.66
2023-04-14T21:29:08.589Z,13.61
2023-04-14T21:31:37.067Z,13.47
2023-04-14T21:34:06.436Z,13.52
2023-04-14T21:36:34.825Z,13.64
2023-04-14T21:39:04.316Z,13.63
2023-04-14T21:41:35.923Z,13.51
2023-04-14T21:44:04.220Z,13.45
2023-04-14T21:46:34.913Z,13.43
2023-04-14T21:49:03.909Z,13.48
2023-04-14T21:51:32.451Z,13.45
2023-04-14T21:54:00.997Z,13.44
2023-04-14T21:56:29.277Z,13.44
2023-04-14T21:58:59.309Z,13.42
2023-04-14T22:01:29.853Z,13.42
2023-04-14T22:03:58.652Z,13.32
2023-04-14T22:06:27.885Z,13.33
2023-04-14T22:08:56.835Z,13.28
2023-04-14T22:11:25.302Z,13.32
2023-04-14T22:13:53.699Z,13.18
2023-04-14T22:16:23.570Z,13.11
2023-04-14T22:18:52.132Z,12.96
2023-04-14T22:21:20.943Z,12.89
2023-04-14T22:23:49.240Z,12.78
2023-04-14T22:26:17.541Z,12.72
2023-04-14T22:28:45.908Z,12.71
2023-04-14T22:31:14.896Z,12.89
2023-04-14T22:33:44.694Z,12.94
2023-04-14T22:36:13.342Z,12.86
2023-04-14T22:38:42.556Z,12.80
2023-04-14T22:41:11.005Z,12.75
2023-04-14T22:43:39.298Z,12.79
2023-04-14T22:46:07.659Z,12.72
2023-04-14T22:48:36.051Z,12.67
2023-04-14T22:51:05.813Z,12.66
2023-04-14T22:53:34.119Z,12.68
2023-04-14T22:56:03.694Z,12.69
2023-04-14T22:58:39.047Z,12.57
2023-04-14T23:01:18.983Z,12.62
2023-04-14T23:03:52.582Z,12.64
2023-04-14T23:06:23.422Z,12.54
2023-04-14T23:08:52.829Z,12.50
2023-04-14T23:11:21.522Z,12.40
2023-04-14T23:13:51.540Z,12.35
2023-04-14T23:16:20.868Z,12.40
2023-04-14T23:18:52.077Z,12.38
2023-04-14T23:21:22.393Z,12.31
2023-04-14T23:23:52.765Z,12.33
2023-04-14T23:26:22.878Z,12.31
2023-04-14T23:28:53.073Z,12.26
2023-04-14T23:31:21.968Z,12.28
2023-04-14T23:33:52.918Z,12.24
2023-04-14T23:36:21.614Z,12.21
2023-04-14T23:38:51.603Z,12.10
2023-04-14T23:41:20.225Z,11.96
2023-04-14T23:43:49.650Z,11.88
2023-04-14T23:46:18.104Z,11.85
2023-04-14T23:48:46.813Z,11.85
2023-04-14T23:51:19.678Z,11.85
2023-04-14T23:53:49.342Z,11.82
2023-04-14T23:56:19.279Z,11.85
2023-04-14T23:58:47.789Z,11.87
